Time;durP1;ratioP1;P1;durP2;ratioP2;P2;SDS_P1;SDS_P2;PMS_P1;PMS_P2;Temp;Humidity;BMP_temperature;BMP_pressure;BME280_temperature;BME280_humidity;BME280_pressure;Samples;Min_cycle;Max_cycle;Signal;HPM_P1;HPM_P2
2022/06/03 00:02:31;;;;;;;3.53;1.50;;;11.80;99.90;;;;;;5054244;28;20213;-75
2022/06/03 00:05:26;;;;;;;2.72;1.65;;;11.80;99.90;;;;;;5049811;28;20744;-76
2022/06/03 00:08:12;;;;;;;3.08;1.50;;;11.90;99.90;;;;;;5054418;28;20197;-75
2022/06/03 00:11:31;;;;;;;2.80;1.50;;;12.00;99.90;;;;;;5054021;28;20660;-77
2022/06/03 00:14:24;;;;;;;2.55;1.30;;;12.10;99.90;;;;;;4988359;28;20247;-76
2022/06/03 00:17:06;;;;;;;2.70;1.55;;;12.20;99.90;;;;;;4992507;28;20254;-76
2022/06/03 00:19:53;;;;;;;2.70;1.25;;;12.40;99.90;;;;;;5038481;28;20205;-75
2022/06/03 00:22:53;;;;;;;3.50;1.80;;;12.40;99.90;;;;;;5054281;28;20200;-75
2022/06/03 00:25:51;;;;;;;2.17;1.52;;;12.40;99.90;;;;;;5053680;28;20657;-75
2022/06/03 00:28:39;;;;;;;3.60;1.77;;;12.40;99.90;;;;;;5051846;28;20205;-75
2022/06/03 00:31:26;;;;;;;4.43;1.70;;;12.40;99.90;;;;;;5055317;28;20201;-76
2022/06/03 00:34:13;;;;;;;3.60;1.60;;;12.40;99.90;;;;;;5052820;28;20719;-75
2022/06/03 00:36:57;;;;;;;2.38;1.60;;;12.40;99.90;;;;;;5053755;28;20186;-75
2022/06/03 00:39:57;;;;;;;2.78;1.73;;;12.30;99.90;;;;;;5054300;28;20198;-75
2022/06/03 00:42:54;;;;;;;4.05;1.70;;;12.40;99.90;;;;;;5053015;28;20255;-75
2022/06/03 00:45:42;;;;;;;1.80;1.50;;;12.30;99.90;;;;;;5050887;28;20665;-75
2022/06/03 00:48:38;;;;;;;3.42;1.80;;;12.40;99.90;;;;;;5051772;28;20201;-76
2022/06/03 00:51:34;;;;;;;1.88;1.40;;;12.40;99.90;;;;;;5047499;28;20535;-75
2022/06/03 00:54:33;;;;;;;2.35;1.67;;;12.40;99.90;;;;;;5051295;28;20604;-76
2022/06/03 00:57:26;;;;;;;3.13;1.65;;;12.50;99.90;;;;;;5053869;28;20201;-75
2022/06/03 01:00:20;;;;;;;3.33;1.52;;;12.50;99.90;;;;;;5043583;28;20212;-75
2022/06/03 01:03:12;;;;;;;3.03;1.58;;;12.60;99.90;;;;;;5052145;28;20201;-75
2022/06/03 01:05:59;;;;;;;2.67;1.63;;;12.80;99.90;;;;;;5042297;28;20229;-75
2022/06/03 01:08:42;;;;;;;2.20;1.60;;;12.90;99.90;;;;;;5044343;28;20198;-75
2022/06/03 01:11:47;;;;;;;3.80;1.65;;;13.00;99.90;;;;;;5056322;28;20194;-76
2022/06/03 01:14:30;;;;;;;2.88;1.85;;;13.10;99.90;;;;;;5052990;28;20217;-75
2022/06/03 01:17:09;;;;;;;5.18;2.00;;;13.20;99.90;;;;;;5052491;28;20189;-76
2022/06/03 01:19:55;;;;;;;3.53;1.52;;;13.20;99.90;;;;;;5045939;28;20197;-76
2022/06/03 01:22:57;;;;;;;3.40;1.92;;;13.30;99.90;;;;;;5050917;28;20750;-76
2022/06/03 01:26:11;;;;;;;3.28;1.67;;;13.40;99.90;;;;;;5011476;28;20205;-77
2022/06/03 01:29:12;;;;;;;4.32;1.63;;;13.50;99.90;;;;;;4968459;28;20204;-77
2022/06/03 01:32:11;;;;;;;2.85;1.63;;;13.60;99.90;;;;;;5050081;28;20226;-76
2022/06/03 01:34:54;;;;;;;2.95;1.27;;;13.70;99.90;;;;;;5029827;28;20229;-76
2022/06/03 01:37:29;;;;;;;1.60;1.50;;;13.90;99.90;;;;;;5050894;28;20563;-77
2022/06/03 01:40:17;;;;;;;5.13;1.60;;;14.10;99.90;;;;;;5051071;28;20197;-76
2022/06/03 01:43:21;;;;;;;3.28;1.23;;;14.20;99.90;;;;;;5048598;28;20189;-76
2022/06/03 01:46:14;;;;;;;1.95;1.10;;;14.20;99.90;;;;;;5048839;28;20201;-77
2022/06/03 01:49:21;;;;;;;2.47;1.00;;;14.30;99.90;;;;;;5050041;28;20202;-76
2022/06/03 01:52:14;;;;;;;3.35;0.90;;;14.30;99.90;;;;;;5053271;28;20197;-76
2022/06/03 01:55:22;;;;;;;2.05;1.00;;;14.40;99.90;;;;;;5050039;28;20236;-81
2022/06/03 01:58:23;;;;;;;0.73;0.70;;;14.40;99.90;;;;;;5030490;28;20205;-77
2022/06/03 02:01:09;;;;;;;2.97;1.05;;;14.50;99.90;;;;;;5041348;28;20210;-79
2022/06/03 02:04:15;;;;;;;2.50;1.05;;;14.60;99.90;;;;;;4941171;28;3065091;-77
2022/06/03 02:07:17;;;;;;;1.52;0.95;;;14.90;99.90;;;;;;5049553;28;20212;-76
2022/06/03 02:10:32;;;;;;;2.65;0.90;;;15.10;99.90;;;;;;5050618;28;20683;-77
2022/06/03 02:13:28;;;;;;;1.45;0.70;;;15.20;99.90;;;;;;5049872;28;20197;-76
2022/06/03 02:16:36;;;;;;;1.13;0.70;;;15.20;99.90;;;;;;5050945;28;20208;-76
2022/06/03 02:19:25;;;;;;;2.45;0.70;;;15.20;99.90;;;;;;5049964;28;20280;-75
2022/06/03 02:22:30;;;;;;;1.00;0.63;;;15.20;99.90;;;;;;5047463;28;20567;-77
2022/06/03 02:25:37;;;;;;;0.80;0.60;;;15.10;99.90;;;;;;5051608;28;20202;-75
2022/06/03 02:28:33;;;;;;;1.25;0.63;;;15.10;99.90;;;;;;5047173;28;20201;-78
2022/06/03 02:31:23;;;;;;;1.63;0.70;;;15.10;99.90;;;;;;5046061;28;20612;-76
2022/06/03 02:34:31;;;;;;;1.25;0.70;;;15.20;99.90;;;;;;5051025;28;20213;-76
2022/06/03 02:37:35;;;;;;;1.95;1.13;;;15.20;99.90;;;;;;5046627;28;20212;-76
2022/06/03 02:40:51;;;;;;;2.25;0.80;;;15.20;99.90;;;;;;5046667;28;20200;-75
2022/06/03 02:44:04;;;;;;;1.25;0.80;;;15.20;99.90;;;;;;5046289;28;20336;-77
2022/06/03 02:47:08;;;;;;;2.65;0.70;;;15.20;99.90;;;;;;5030149;28;20198;-75
2022/06/03 02:50:01;;;;;;;2.67;0.98;;;15.30;99.90;;;;;;5050887;28;20652;-75
2022/06/03 02:53:12;;;;;;;2.00;0.77;;;15.30;99.90;;;;;;5049651;28;20198;-77
2022/06/03 02:56:16;;;;;;;2.05;0.80;;;15.30;99.90;;;;;;5050983;28;20213;-77
2022/06/03 02:59:11;;;;;;;2.38;0.88;;;15.20;99.90;;;;;;5024799;28;20209;-76
2022/06/03 03:02:06;;;;;;;1.40;0.85;;;15.10;99.90;;;;;;5050658;28;20254;-76
2022/06/03 03:05:16;;;;;;;3.55;0.90;;;15.00;99.90;;;;;;5048518;28;20290;-77
2022/06/03 03:08:10;;;;;;;1.95;1.05;;;14.80;99.90;;;;;;5021634;28;20231;-79
2022/06/03 03:11:11;;;;;;;1.67;0.80;;;14.70;99.90;;;;;;5056568;28;20204;-79
2022/06/03 03:14:16;;;;;;;0.80;0.60;;;14.70;99.90;;;;;;5047832;28;20197;-77
2022/06/03 03:17:18;;;;;;;0.77;0.70;;;14.70;99.90;;;;;;5043728;28;20200;-80
2022/06/03 03:20:25;;;;;;;0.82;0.63;;;14.70;99.90;;;;;;5044229;28;20201;-76
2022/06/03 03:23:27;;;;;;;1.35;0.80;;;14.60;99.90;;;;;;5051240;28;20276;-77
2022/06/03 03:26:10;;;;;;;2.40;0.90;;;14.60;99.90;;;;;;5050010;28;20211;-76
2022/06/03 03:29:10;;;;;;;1.70;0.77;;;14.60;99.90;;;;;;5055863;28;20197;-76
2022/06/03 03:32:12;;;;;;;2.55;1.10;;;14.50;99.90;;;;;;5054031;28;20652;-76
2022/06/03 03:35:22;;;;;;;1.50;1.00;;;14.40;99.90;;;;;;5047640;28;20234;-77
2022/06/03 03:38:20;;;;;;;2.42;0.88;;;14.40;99.90;;;;;;5034177;28;20656;-77
2022/06/03 03:41:25;;;;;;;2.33;0.70;;;14.40;99.90;;;;;;5055121;28;20205;-77
2022/06/03 03:44:25;;;;;;;2.03;1.20;;;14.40;99.90;;;;;;5051352;28;20668;-78
2022/06/03 03:47:30;;;;;;;3.95;0.88;;;14.40;99.90;;;;;;5060411;28;20568;-78
2022/06/03 03:50:37;;;;;;;1.70;0.93;;;14.50;99.90;;;;;;5058372;28;20333;-81
2022/06/03 03:53:42;;;;;;;2.10;0.90;;;14.50;99.90;;;;;;5048493;28;20621;-77
2022/06/03 03:56:49;;;;;;;2.08;0.80;;;14.50;99.90;;;;;;5045084;28;20194;-77
2022/06/03 03:59:55;;;;;;;2.00;0.88;;;14.50;99.90;;;;;;5043373;28;20214;-76
2022/06/03 04:03:06;;;;;;;1.45;1.02;;;14.50;99.90;;;;;;5052605;28;20205;-78
2022/06/03 04:06:21;;;;;;;2.17;1.00;;;14.50;99.90;;;;;;5053503;28;20338;-76
2022/06/03 04:09:20;;;;;;;1.52;0.88;;;14.50;99.90;;;;;;5054276;28;20284;-76
2022/06/03 04:12:18;;;;;;;1.73;1.00;;;14.50;99.90;;;;;;5051387;28;20190;-79
2022/06/03 04:15:22;;;;;;;1.25;0.75;;;14.50;99.90;;;;;;5045797;28;20680;-76
2022/06/03 04:18:30;;;;;;;1.88;1.10;;;14.40;99.90;;;;;;5036019;28;20208;-77
2022/06/03 04:21:32;;;;;;;3.72;1.00;;;14.40;99.90;;;;;;5052024;28;20212;-78
2022/06/03 04:24:38;;;;;;;2.30;0.90;;;14.40;99.90;;;;;;5051289;28;20258;-77
2022/06/03 04:27:45;;;;;;;3.22;1.10;;;14.30;99.90;;;;;;5037557;28;20201;-77
2022/06/03 04:31:00;;;;;;;1.85;0.80;;;14.30;99.90;;;;;;5051889;28;20208;-77
2022/06/03 04:34:22;;;;;;;0.95;0.70;;;14.30;99.90;;;;;;5053944;28;20194;-77
2022/06/03 04:37:24;;;;;;;1.08;0.80;;;14.40;99.90;;;;;;5047807;28;20224;-77
2022/06/03 04:40:31;;;;;;;1.48;0.70;;;14.40;99.90;;;;;;5052354;28;20189;-77
2022/06/03 04:44:01;;;;;;;1.67;0.80;;;14.50;99.90;;;;;;5021950;28;20249;-77
2022/06/03 04:47:06;;;;;;;2.17;0.70;;;14.50;99.90;;;;;;5030919;28;20201;-77
2022/06/03 04:50:19;;;;;;;1.88;0.90;;;14.50;99.90;;;;;;5051774;28;20197;-77
2022/06/03 04:53:41;;;;;;;1.90;0.70;;;14.40;99.90;;;;;;5053318;28;20648;-77
2022/06/03 04:56:50;;;;;;;1.20;0.63;;;14.40;99.90;;;;;;5054230;28;20228;-76
2022/06/03 05:00:03;;;;;;;1.10;0.60;;;14.40;99.90;;;;;;5051996;28;20244;-77
2022/06/03 05:03:24;;;;;;;1.45;0.70;;;14.40;99.90;;;;;;5051802;28;20210;-78
2022/06/03 05:06:24;;;;;;;0.90;0.60;;;14.30;99.90;;;;;;5052518;28;20209;-76
2022/06/03 05:09:37;;;;;;;3.80;0.75;;;14.40;99.90;;;;;;5054798;28;20205;-77
2022/06/03 05:12:41;;;;;;;1.80;0.60;;;14.40;99.90;;;;;;5007271;28;20247;-77
2022/06/03 05:15:46;;;;;;;0.60;0.60;;;14.40;99.90;;;;;;5053255;28;20216;-78
2022/06/03 05:19:03;;;;;;;2.60;0.63;;;14.40;99.90;;;;;;5051144;28;20210;-77
2022/06/03 05:21:59;;;;;;;1.35;0.75;;;14.40;99.90;;;;;;5043019;28;20205;-77
2022/06/03 05:25:08;;;;;;;1.58;0.80;;;14.40;99.90;;;;;;5049248;28;20221;-78
2022/06/03 05:28:24;;;;;;;1.20;0.88;;;14.30;99.90;;;;;;5045144;28;20197;-78
2022/06/03 05:31:25;;;;;;;2.35;0.60;;;14.30;99.90;;;;;;5054006;28;20679;-77
2022/06/03 05:34:41;;;;;;;1.27;0.60;;;14.20;99.90;;;;;;5050460;28;20736;-77
2022/06/03 05:37:42;;;;;;;1.63;0.60;;;14.20;99.90;;;;;;5036714;28;20194;-77
2022/06/03 05:40:30;;;;;;;1.52;0.60;;;14.10;99.90;;;;;;5039515;28;20193;-77
2022/06/03 05:43:37;;;;;;;1.63;0.60;;;14.10;99.90;;;;;;5050571;28;20189;-77
2022/06/03 05:46:19;;;;;;;0.93;0.50;;;14.10;99.90;;;;;;5042221;28;20204;-78
2022/06/03 05:49:12;;;;;;;0.95;0.75;;;14.10;99.90;;;;;;5049039;28;20197;-78
2022/06/03 05:52:09;;;;;;;1.77;0.52;;;14.00;99.90;;;;;;5051548;28;20297;-78
2022/06/03 05:54:51;;;;;;;1.30;0.60;;;14.00;99.90;;;;;;5046554;28;20202;-77
2022/06/03 05:57:35;;;;;;;1.23;0.60;;;14.00;99.90;;;;;;5048615;28;20189;-77
2022/06/03 06:00:50;;;;;;;1.05;0.57;;;14.00;99.90;;;;;;5052027;28;20220;-78
2022/06/03 06:03:32;;;;;;;1.35;0.60;;;14.00;99.90;;;;;;5012619;28;20233;-76
2022/06/03 06:06:21;;;;;;;0.60;0.40;;;13.90;99.90;;;;;;5047581;28;20692;-80
2022/06/03 06:09:01;;;;;;;0.82;0.60;;;13.90;99.90;;;;;;5050854;28;20643;-77
2022/06/03 06:11:41;;;;;;;1.95;0.88;;;13.90;99.90;;;;;;5048812;28;20263;-75
2022/06/03 06:14:34;;;;;;;3.58;1.20;;;13.90;99.90;;;;;;5049651;28;20205;-78
2022/06/03 06:17:14;;;;;;;1.40;0.70;;;13.80;99.90;;;;;;5056666;28;20232;-78
2022/06/03 06:19:51;;;;;;;1.10;0.65;;;13.80;99.90;;;;;;5049712;28;20197;-76
2022/06/03 06:22:31;;;;;;;9.45;5.10;;;13.80;99.90;;;;;;5046204;28;20197;-79
2022/06/03 06:25:11;;;;;;;45.05;23.52;;;13.80;99.90;;;;;;5047816;28;20229;-77
2022/06/03 06:28:04;;;;;;;30.05;15.20;;;13.80;99.90;;;;;;5051810;28;20193;-78
2022/06/03 06:30:58;;;;;;;3.88;1.77;;;13.70;99.90;;;;;;5050212;28;20197;-77
2022/06/03 06:34:03;;;;;;;4.35;2.60;;;13.80;99.90;;;;;;5052096;28;20198;-77
2022/06/03 06:37:01;;;;;;;1.65;0.85;;;13.70;99.90;;;;;;5048387;28;20237;-75
2022/06/03 06:39:53;;;;;;;1.38;0.98;;;13.70;99.90;;;;;;5045201;28;20240;-75
2022/06/03 06:42:36;;;;;;;0.50;0.50;;;13.70;99.90;;;;;;5050712;28;20196;-75
2022/06/03 06:45:24;;;;;;;1.70;0.60;;;13.70;99.90;;;;;;5049248;28;20189;-78
2022/06/03 06:48:02;;;;;;;0.73;0.60;;;13.70;99.90;;;;;;5047943;28;20189;-79
2022/06/03 06:50:43;;;;;;;2.17;0.70;;;13.60;99.90;;;;;;5049890;28;20189;-78
2022/06/03 06:53:17;;;;;;;1.52;0.60;;;13.40;99.90;;;;;;5047600;28;20186;-78
2022/06/03 06:55:57;;;;;;;1.33;0.70;;;13.30;99.90;;;;;;5047293;28;20221;-79
2022/06/03 06:58:42;;;;;;;1.85;0.70;;;13.20;99.90;;;;;;5044946;28;20289;-78
2022/06/03 07:01:18;;;;;;;1.23;0.77;;;13.10;99.90;;;;;;5050868;28;20194;-79
2022/06/03 07:04:03;;;;;;;3.42;0.70;;;13.00;99.90;;;;;;5047746;28;20691;-80
2022/06/03 07:06:43;;;;;;;0.88;0.60;;;13.00;99.90;;;;;;5050136;28;20622;-79
2022/06/03 07:09:43;;;;;;;1.98;0.70;;;12.90;99.90;;;;;;5050114;28;20247;-79
2022/06/03 07:12:16;;;;;;;0.47;0.47;;;12.90;99.90;;;;;;5042681;28;20211;-81
2022/06/03 07:14:58;;;;;;;1.35;0.60;;;12.80;99.90;;;;;;5046858;28;20203;-82
2022/06/03 07:20:34;;;;;;;1.05;0.65;;;12.80;99.90;;;;;;5047378;28;20185;-78
2022/06/03 07:23:11;;;;;;;1.17;0.80;;;12.70;99.90;;;;;;5048272;28;20189;-77
2022/06/03 07:25:47;;;;;;;2.58;0.80;;;12.70;99.90;;;;;;5051170;28;20198;-77
2022/06/03 07:28:31;;;;;;;0.60;0.60;;;12.60;99.90;;;;;;5049834;28;20190;-76
2022/06/03 07:31:11;;;;;;;0.63;0.50;;;12.60;99.90;;;;;;5049146;28;20239;-77
2022/06/03 07:34:02;;;;;;;1.08;0.65;;;12.60;99.90;;;;;;5049877;28;20273;-78
2022/06/03 07:36:44;;;;;;;2.13;0.75;;;12.60;99.90;;;;;;5049268;28;20233;-79
2022/06/03 07:39:47;;;;;;;1.50;0.80;;;12.60;99.90;;;;;;5047628;28;20190;-76
2022/06/03 07:42:27;;;;;;;1.17;0.80;;;12.50;99.90;;;;;;5048769;28;20356;-77
2022/06/03 07:45:15;;;;;;;1.52;0.90;;;12.50;99.90;;;;;;5048554;28;20197;-78
2022/06/03 07:47:46;;;;;;;3.58;0.90;;;12.50;99.90;;;;;;5049442;28;20572;-76
2022/06/03 07:50:21;;;;;;;1.70;0.95;;;12.50;99.90;;;;;;5044885;28;20637;-77
2022/06/03 07:52:55;;;;;;;2.85;0.85;;;12.50;99.90;;;;;;5049780;28;20196;-78
2022/06/03 07:55:27;;;;;;;0.65;0.63;;;12.40;99.90;;;;;;5051342;28;20696;-77
2022/06/03 07:57:59;;;;;;;0.80;0.77;;;12.40;99.90;;;;;;5047235;28;20187;-78
2022/06/03 08:00:30;;;;;;;2.33;0.95;;;12.40;99.90;;;;;;5051033;28;20209;-77
2022/06/03 08:03:11;;;;;;;1.60;0.75;;;12.40;99.90;;;;;;5045674;28;20194;-78
2022/06/03 08:05:45;;;;;;;2.00;0.70;;;12.40;99.90;;;;;;5042585;28;20277;-77
2022/06/03 08:11:08;;;;;;;1.67;0.80;;;12.30;99.90;;;;;;5047849;28;20659;-76
2022/06/03 08:13:50;;;;;;;1.40;0.90;;;12.30;99.90;;;;;;5053213;28;20649;-77
2022/06/03 08:16:27;;;;;;;1.33;0.73;;;12.30;99.90;;;;;;5052118;28;20220;-76
2022/06/03 08:19:00;;;;;;;2.58;0.82;;;12.30;99.90;;;;;;5048673;28;20250;-77
2022/06/03 08:21:38;;;;;;;0.70;0.70;;;12.30;99.90;;;;;;5055388;28;20198;-77
2022/06/03 08:24:11;;;;;;;1.45;0.90;;;12.30;99.90;;;;;;5052098;28;20281;-82
2022/06/03 08:26:44;;;;;;;0.70;0.70;;;12.30;99.90;;;;;;5050977;28;20556;-78
2022/06/03 08:29:26;;;;;;;1.00;0.63;;;12.30;99.90;;;;;;5053722;28;20679;-78
2022/06/03 08:31:59;;;;;;;1.27;0.60;;;12.30;99.90;;;;;;5053613;28;20205;-78
2022/06/03 08:34:42;;;;;;;0.60;0.60;;;12.30;99.90;;;;;;5050115;28;20240;-78
2022/06/03 08:37:18;;;;;;;3.45;0.90;;;12.40;99.90;;;;;;5051309;28;20244;-75
2022/06/03 08:39:50;;;;;;;1.65;0.80;;;12.30;99.90;;;;;;5051500;28;20205;-77
2022/06/03 08:42:37;;;;;;;1.48;0.80;;;12.30;99.90;;;;;;5049988;28;20198;-79
2022/06/03 08:45:25;;;;;;;1.95;0.85;;;12.30;99.90;;;;;;5050929;28;20206;-79
2022/06/03 08:47:58;;;;;;;2.70;0.90;;;12.30;99.90;;;;;;5054768;28;20202;-77
2022/06/03 08:50:36;;;;;;;39.42;20.27;;;12.30;99.90;;;;;;5049443;28;20204;-78
2022/06/03 08:53:14;;;;;;;7.32;4.10;;;12.30;99.90;;;;;;5052828;28;20204;-77
2022/06/03 08:55:49;;;;;;;24.20;13.68;;;12.30;99.90;;;;;;5053254;28;20209;-80
2022/06/03 08:58:27;;;;;;;16.83;8.98;;;12.30;99.90;;;;;;5047045;28;20243;-78
2022/06/03 09:01:18;;;;;;;8.82;4.97;;;12.30;99.90;;;;;;5050030;28;20228;-80
2022/06/03 09:03:59;;;;;;;8.90;5.05;;;12.20;99.90;;;;;;5045366;28;20266;-79
2022/06/03 09:06:44;;;;;;;19.08;11.07;;;12.20;99.90;;;;;;5051461;28;20193;-78
2022/06/03 09:09:27;;;;;;;6.05;3.05;;;12.20;99.90;;;;;;5046495;28;20198;-79
2022/06/03 09:12:07;;;;;;;9.35;5.50;;;12.20;99.90;;;;;;5046975;28;20251;-77
2022/06/03 09:14:38;;;;;;;2.45;1.10;;;12.20;99.90;;;;;;5050134;28;20183;-77
2022/06/03 09:17:16;;;;;;;2.10;1.33;;;12.20;99.90;;;;;;5049362;28;20220;-78
2022/06/03 09:19:50;;;;;;;2.10;1.38;;;12.10;99.90;;;;;;5050496;28;20605;-78
2022/06/03 09:22:26;;;;;;;2.78;1.80;;;12.10;99.90;;;;;;5046807;28;20191;-77
2022/06/03 09:25:01;;;;;;;1.15;0.90;;;12.10;99.90;;;;;;5050490;28;20201;-78
2022/06/03 09:27:33;;;;;;;1.20;0.90;;;12.10;99.90;;;;;;5048097;28;20699;-78
2022/06/03 09:30:07;;;;;;;1.70;0.80;;;12.10;99.90;;;;;;5050379;28;20280;-76
2022/06/03 09:32:47;;;;;;;1.40;0.90;;;12.10;99.90;;;;;;5051169;28;20192;-78
2022/06/03 09:35:22;;;;;;;2.42;0.90;;;12.00;99.90;;;;;;5051009;28;20190;-79
2022/06/03 09:37:58;;;;;;;1.63;0.82;;;12.00;99.90;;;;;;5053188;28;20231;-78
2022/06/03 09:40:33;;;;;;;1.48;0.70;;;12.00;99.90;;;;;;5052452;28;20200;-78
2022/06/03 09:43:07;;;;;;;2.28;0.80;;;11.90;99.90;;;;;;5049201;28;20197;-78
2022/06/03 09:45:38;;;;;;;1.40;0.70;;;11.90;99.90;;;;;;5052745;28;20197;-77
2022/06/03 09:48:09;;;;;;;0.93;0.75;;;11.90;99.90;;;;;;5053390;28;20193;-78
2022/06/03 09:50:40;;;;;;;1.17;0.73;;;11.80;99.90;;;;;;5053991;28;20239;-78
2022/06/03 09:53:12;;;;;;;0.88;0.60;;;11.80;99.90;;;;;;5052957;28;20189;-78
2022/06/03 09:55:50;;;;;;;0.70;0.63;;;11.70;99.90;;;;;;5052712;28;20217;-79
2022/06/03 09:58:24;;;;;;;1.98;0.80;;;11.80;99.90;;;;;;5050489;28;20679;-79
2022/06/03 10:00:57;;;;;;;1.58;0.57;;;11.70;99.90;;;;;;5052279;28;20293;-78
2022/06/03 10:03:28;;;;;;;0.85;0.60;;;11.70;99.90;;;;;;5051990;28;20229;-78
2022/06/03 10:06:00;;;;;;;1.27;0.80;;;11.70;99.90;;;;;;5051999;28;20663;-78
2022/06/03 10:12:48;;;;;;;1.23;0.88;;;11.70;99.90;;;;;;5052806;28;20251;-78
2022/06/03 10:14:15;;;;;;;1.15;0.80;;;11.80;99.90;;;;;;5049224;28;20267;-77
2022/06/03 10:16:46;;;;;;;1.60;0.77;;;11.80;99.90;;;;;;5052504;28;20629;-77
2022/06/03 10:19:17;;;;;;;2.15;0.85;;;11.70;99.90;;;;;;5050811;28;20197;-77
2022/06/03 10:21:57;;;;;;;1.50;0.80;;;11.70;99.90;;;;;;5053313;28;20189;-79
2022/06/03 10:24:34;;;;;;;1.17;0.75;;;11.70;99.90;;;;;;5047863;28;20201;-78
2022/06/03 10:27:09;;;;;;;1.38;0.90;;;11.70;99.90;;;;;;5051134;28;20655;-78
2022/06/03 10:29:50;;;;;;;1.60;1.13;;;11.70;99.90;;;;;;5050864;28;20673;-78
2022/06/03 10:32:23;;;;;;;1.45;0.90;;;11.80;99.90;;;;;;5051340;28;20205;-78
2022/06/03 10:34:57;;;;;;;2.05;0.80;;;11.70;99.90;;;;;;5052263;28;20232;-78
2022/06/03 10:37:29;;;;;;;1.42;0.90;;;11.70;99.90;;;;;;5052218;28;20221;-79
2022/06/03 10:39:59;;;;;;;1.02;0.80;;;11.70;99.90;;;;;;5051147;28;20200;-79
2022/06/03 10:42:32;;;;;;;1.70;0.82;;;11.70;99.90;;;;;;5050289;28;20200;-78
2022/06/03 10:45:03;;;;;;;2.80;0.80;;;11.70;99.90;;;;;;5053316;28;20208;-78
2022/06/03 10:47:38;;;;;;;0.82;0.73;;;11.70;99.90;;;;;;5044663;28;20201;-78
2022/06/03 10:50:13;;;;;;;1.38;0.68;;;11.70;99.90;;;;;;5052318;28;20197;-78
2022/06/03 11:01:27;;;;;;;1.02;0.75;;;11.70;99.90;;;;;;5052974;28;20204;-78
2022/06/03 11:03:58;;;;;;;1.25;0.80;;;11.70;99.90;;;;;;5042771;28;20283;-79
2022/06/03 11:06:34;;;;;;;2.10;0.70;;;11.70;99.90;;;;;;5052857;28;20192;-79
2022/06/03 11:09:06;;;;;;;0.80;0.57;;;11.70;99.90;;;;;;5052868;28;20189;-78
2022/06/03 11:11:44;;;;;;;1.25;0.70;;;11.70;99.90;;;;;;5051208;28;20209;-78
2022/06/03 11:14:36;;;;;;;1.50;0.75;;;11.70;99.90;;;;;;5052731;28;20225;-78
2022/06/03 11:17:21;;;;;;;0.98;0.70;;;11.70;99.90;;;;;;5045425;28;20593;-78
2022/06/03 11:19:54;;;;;;;2.42;0.50;;;11.70;99.90;;;;;;5051982;28;20693;-78
2022/06/03 11:22:31;;;;;;;1.40;0.60;;;11.80;99.90;;;;;;5051047;28;20281;-78
2022/06/03 11:25:05;;;;;;;1.23;0.68;;;11.80;99.90;;;;;;5051865;28;20204;-78
2022/06/03 11:27:43;;;;;;;1.45;0.52;;;11.80;99.90;;;;;;5052239;28;20300;-78
2022/06/03 11:30:21;;;;;;;1.92;0.65;;;11.80;99.90;;;;;;5051256;28;20193;-77
2022/06/03 11:32:55;;;;;;;0.90;0.60;;;11.80;99.90;;;;;;5047385;28;20197;-78
2022/06/03 11:35:33;;;;;;;0.70;0.60;;;11.80;99.90;;;;;;5051598;28;20608;-78
2022/06/03 11:38:05;;;;;;;2.30;0.75;;;11.80;99.90;;;;;;5044449;28;20229;-77
2022/06/03 11:40:40;;;;;;;0.80;0.60;;;11.80;99.90;;;;;;5050791;28;20910;-78
2022/06/03 11:43:14;;;;;;;0.60;0.60;;;11.80;99.90;;;;;;5051171;28;20197;-78
2022/06/03 11:45:51;;;;;;;1.42;0.77;;;11.80;99.90;;;;;;5052692;28;20197;-77
2022/06/03 11:48:27;;;;;;;0.95;0.60;;;11.80;99.90;;;;;;5056170;28;20190;-77
2022/06/03 11:50:59;;;;;;;1.00;0.70;;;11.80;99.90;;;;;;5059043;28;20201;-77
2022/06/03 11:53:32;;;;;;;1.23;0.77;;;11.80;99.90;;;;;;5060802;28;20196;-77
2022/06/03 11:56:05;;;;;;;1.55;0.70;;;11.80;99.90;;;;;;5057888;28;20197;-76
2022/06/03 11:59:01;;;;;;;1.20;0.68;;;11.80;99.90;;;;;;5060135;28;20192;-77
2022/06/03 12:01:45;;;;;;;1.27;0.60;;;11.80;99.90;;;;;;5051221;28;20592;-77
2022/06/03 12:04:26;;;;;;;1.15;0.63;;;11.80;99.90;;;;;;5048999;28;20722;-78
2022/06/03 12:07:04;;;;;;;1.05;0.65;;;11.80;99.90;;;;;;5055045;28;20197;-78
2022/06/03 12:09:46;;;;;;;1.00;0.70;;;11.80;99.90;;;;;;5054391;28;20201;-76
2022/06/03 12:15:43;;;;;;;1.63;0.60;;;11.80;99.90;;;;;;5049907;28;20188;-77
2022/06/03 12:18:58;;;;;;;1.38;0.80;;;11.70;99.90;;;;;;5055490;28;20217;-78
2022/06/03 12:21:55;;;;;;;0.85;0.70;;;11.70;99.90;;;;;;5047780;28;20200;-77
2022/06/03 12:24:59;;;;;;;0.73;0.68;;;11.70;99.90;;;;;;5057959;28;20213;-77
2022/06/03 12:27:33;;;;;;;1.33;0.60;;;11.70;99.90;;;;;;5049817;28;20205;-77
2022/06/03 12:30:43;;;;;;;2.17;0.60;;;11.70;99.90;;;;;;5051630;28;20202;-79
2022/06/03 12:33:25;;;;;;;0.95;0.70;;;11.60;99.90;;;;;;5053671;28;20197;-77
2022/06/03 12:36:08;;;;;;;1.05;0.85;;;11.60;99.90;;;;;;5054738;28;20198;-77
2022/06/03 12:38:47;;;;;;;1.85;0.90;;;11.60;99.90;;;;;;5053932;28;20673;-77
2022/06/03 12:41:49;;;;;;;1.20;0.82;;;11.60;99.90;;;;;;5055013;28;20193;-77
2022/06/03 12:44:41;;;;;;;1.23;0.82;;;11.60;99.90;;;;;;5049955;28;20197;-78
2022/06/03 12:47:45;;;;;;;1.95;0.93;;;11.60;99.90;;;;;;5055579;28;20198;-78
2022/06/03 12:50:39;;;;;;;2.08;0.90;;;11.60;99.90;;;;;;5053839;28;20276;-77
2022/06/03 12:53:40;;;;;;;2.53;1.05;;;11.60;99.90;;;;;;5054245;28;20204;-77
2022/06/03 12:56:24;;;;;;;1.65;0.95;;;11.60;99.90;;;;;;5051827;28;20213;-79
2022/06/03 12:59:04;;;;;;;1.40;0.93;;;11.60;99.90;;;;;;5053236;28;20208;-76
2022/06/03 13:01:52;;;;;;;0.93;0.80;;;11.50;99.90;;;;;;5050966;28;20975;-77
2022/06/03 13:04:46;;;;;;;1.73;0.70;;;11.50;99.90;;;;;;5049987;28;20236;-77
2022/06/03 13:07:58;;;;;;;2.78;0.70;;;11.50;99.90;;;;;;5047703;28;20612;-77
2022/06/03 13:10:34;;;;;;;1.08;0.68;;;11.50;99.90;;;;;;5051409;28;20205;-77
2022/06/03 13:13:37;;;;;;;1.33;0.80;;;11.50;99.90;;;;;;5053985;28;20274;-77
2022/06/03 13:16:36;;;;;;;1.20;0.80;;;11.50;99.90;;;;;;5048609;28;20200;-78
2022/06/03 13:19:44;;;;;;;1.35;0.80;;;11.50;99.90;;;;;;5053882;28;20202;-78
2022/06/03 13:22:43;;;;;;;0.93;0.70;;;11.50;99.90;;;;;;5055092;28;20233;-78
2022/06/03 13:25:37;;;;;;;0.77;0.77;;;11.50;99.90;;;;;;5050223;28;20206;-78
2022/06/03 13:28:23;;;;;;;0.88;0.70;;;11.50;99.90;;;;;;5048894;28;20209;-77
2022/06/03 13:31:16;;;;;;;1.00;0.70;;;11.50;99.90;;;;;;5046219;28;20236;-77
2022/06/03 13:34:24;;;;;;;1.77;0.90;;;11.50;99.90;;;;;;5044808;28;20208;-77
2022/06/03 13:37:13;;;;;;;0.88;0.70;;;11.50;99.90;;;;;;5051877;28;20688;-77
2022/06/03 13:40:18;;;;;;;1.05;0.80;;;11.50;99.90;;;;;;5051048;28;20263;-77
2022/06/03 13:43:25;;;;;;;2.85;0.77;;;11.40;99.90;;;;;;5051872;28;20197;-77
2022/06/03 13:46:02;;;;;;;1.48;0.60;;;11.40;99.90;;;;;;5009361;28;20195;-77
2022/06/03 13:48:53;;;;;;;2.08;0.70;;;11.40;99.90;;;;;;5050176;28;20566;-77
2022/06/03 13:52:08;;;;;;;2.15;0.80;;;11.40;99.90;;;;;;5047533;28;20672;-76
2022/06/03 13:54:49;;;;;;;1.08;0.70;;;11.50;99.90;;;;;;5048207;28;20205;-77
2022/06/03 13:57:31;;;;;;;1.98;0.90;;;11.40;99.90;;;;;;5047185;28;20214;-77
2022/06/03 14:00:22;;;;;;;2.88;0.70;;;11.40;99.90;;;;;;5051993;28;20217;-77
2022/06/03 14:02:56;;;;;;;1.20;0.90;;;11.40;99.90;;;;;;5048459;28;20253;-78
2022/06/03 14:05:42;;;;;;;1.00;0.90;;;11.40;99.90;;;;;;5051667;28;20197;-77
2022/06/03 14:08:20;;;;;;;1.40;0.88;;;11.40;99.90;;;;;;5044854;28;20236;-77
2022/06/03 14:10:55;;;;;;;1.42;1.00;;;11.40;99.90;;;;;;5051393;28;20247;-77
2022/06/03 14:13:33;;;;;;;0.90;0.75;;;11.40;99.90;;;;;;5051228;28;20200;-77
2022/06/03 14:16:09;;;;;;;0.85;0.70;;;11.40;99.90;;;;;;5050639;28;20197;-77
2022/06/03 14:18:54;;;;;;;1.25;0.73;;;11.40;99.90;;;;;;5052804;28;20212;-76
2022/06/03 14:21:35;;;;;;;1.05;0.80;;;11.40;99.90;;;;;;5049582;28;20205;-77
2022/06/03 14:24:10;;;;;;;4.72;0.82;;;11.40;99.90;;;;;;5055571;28;20209;-77
2022/06/03 14:26:51;;;;;;;1.90;1.00;;;11.40;99.90;;;;;;5049841;28;20190;-77
2022/06/03 14:29:27;;;;;;;1.13;0.70;;;11.40;99.90;;;;;;5050183;28;20198;-78
2022/06/03 14:32:00;;;;;;;1.30;0.82;;;11.40;99.90;;;;;;5047598;28;20197;-77
2022/06/03 14:34:34;;;;;;;1.85;0.80;;;11.40;99.90;;;;;;5047359;28;20202;-77
2022/06/03 14:37:13;;;;;;;2.13;1.00;;;11.40;99.90;;;;;;5047299;28;20212;-77
2022/06/03 14:39:46;;;;;;;1.60;0.90;;;11.30;99.90;;;;;;5053957;28;20272;-77
2022/06/03 14:42:30;;;;;;;2.45;1.10;;;11.30;99.90;;;;;;5048576;28;20679;-77
2022/06/03 14:45:02;;;;;;;1.45;1.00;;;11.30;99.90;;;;;;5050120;28;20649;-77
2022/06/03 14:47:36;;;;;;;1.45;0.95;;;11.30;99.90;;;;;;5044946;28;20197;-77
2022/06/03 14:50:12;;;;;;;1.98;0.90;;;11.30;99.90;;;;;;5047366;28;20200;-78
2022/06/03 14:52:48;;;;;;;2.05;1.05;;;11.30;99.90;;;;;;5052253;28;20194;-77
2022/06/03 14:55:23;;;;;;;2.35;1.10;;;11.30;99.90;;;;;;5050446;28;20194;-77
2022/06/03 14:58:00;;;;;;;3.83;1.00;;;11.30;99.90;;;;;;5048203;28;20213;-77